Time;durP1;ratioP1;P1;durP2;ratioP2;P2;SDS_P1;SDS_P2;PMS_P1;PMS_P2;Temp;Humidity;BMP_temperature;BMP_pressure;BME280_temperature;BME280_humidity;BME280_pressure;Samples;Min_cycle;Max_cycle;Signal;HPM_P1;HPM_P2
2022/03/22 00:00:16;;;;;;;37.27;27.27;;;5.20;53.20;;;;;;5009683;28;20454;-72
2022/03/22 00:02:43;;;;;;;41.37;28.87;;;5.20;54.10;;;;;;5009624;28;20459;-76
2022/03/22 00:05:11;;;;;;;46.63;30.00;;;5.40;54.10;;;;;;5009920;28;20482;-73
2022/03/22 00:07:38;;;;;;;46.13;29.83;;;5.20;53.90;;;;;;5009842;28;20905;-76
2022/03/22 00:10:06;;;;;;;43.50;30.00;;;5.20;53.70;;;;;;5009776;28;20451;-76
2022/03/22 00:12:35;;;;;;;41.03;28.30;;;5.30;53.80;;;;;;5010393;28;20460;-73
2022/03/22 00:15:03;;;;;;;42.13;27.20;;;5.50;53.70;;;;;;5009762;28;20464;-72
2022/03/22 00:17:31;;;;;;;42.83;25.40;;;5.50;52.40;;;;;;5009164;28;20537;-76
2022/03/22 00:19:58;;;;;;;36.53;25.00;;;5.50;51.90;;;;;;5009703;28;20459;-73
2022/03/22 00:22:26;;;;;;;37.13;23.47;;;5.50;51.80;;;;;;5009779;28;20463;-76
2022/03/22 00:24:53;;;;;;;42.73;24.23;;;5.50;51.80;;;;;;5010242;28;20865;-75
2022/03/22 00:27:20;;;;;;;39.53;26.80;;;5.40;52.10;;;;;;5009499;28;20546;-72
2022/03/22 00:29:48;;;;;;;41.17;26.17;;;5.30;52.80;;;;;;5009541;28;20462;-76
2022/03/22 00:32:15;;;;;;;32.30;20.67;;;5.30;53.50;;;;;;5009559;28;20581;-75
2022/03/22 00:34:45;;;;;;;27.70;20.23;;;5.40;51.90;;;;;;5009142;28;20466;-77
2022/03/22 00:37:15;;;;;;;26.50;17.00;;;5.40;50.90;;;;;;5009114;28;20550;-78
2022/03/22 00:39:43;;;;;;;29.60;18.63;;;5.20;51.10;;;;;;5009107;28;20494;-72
2022/03/22 00:42:10;;;;;;;27.93;17.80;;;5.40;51.50;;;;;;5009356;28;21012;-74
2022/03/22 00:44:38;;;;;;;26.80;18.40;;;5.40;51.40;;;;;;5009520;28;20482;-75
2022/03/22 00:47:06;;;;;;;29.17;20.47;;;5.50;50.80;;;;;;5009338;28;20483;-73
2022/03/22 00:49:34;;;;;;;28.33;20.13;;;5.50;51.20;;;;;;5009213;28;20460;-73
2022/03/22 00:52:04;;;;;;;32.80;19.60;;;5.50;52.00;;;;;;5010980;28;20937;-76
2022/03/22 00:54:32;;;;;;;24.30;19.17;;;5.60;51.90;;;;;;5012735;28;20455;-71
2022/03/22 00:56:59;;;;;;;30.03;19.23;;;5.30;52.30;;;;;;5012661;28;20488;-75
2022/03/22 01:02:11;;;;;;;33.23;20.80;;;5.50;52.30;;;;;;5012189;28;20528;-74
2022/03/22 01:04:38;;;;;;;28.77;19.33;;;5.60;52.10;;;;;;5012407;28;20456;-74
2022/03/22 01:07:07;;;;;;;28.50;18.97;;;5.70;52.00;;;;;;5012496;28;20455;-73
2022/03/22 01:09:34;;;;;;;29.80;20.50;;;5.90;51.90;;;;;;5012374;28;20468;-74
2022/03/22 01:12:01;;;;;;;27.80;19.17;;;6.10;51.40;;;;;;5012030;28;20460;-76
2022/03/22 01:14:28;;;;;;;28.90;19.50;;;6.00;51.40;;;;;;5012371;28;20452;-74
2022/03/22 01:16:56;;;;;;;30.60;19.53;;;6.10;51.50;;;;;;5012101;28;20487;-74
2022/03/22 01:19:24;;;;;;;27.43;18.43;;;5.90;51.40;;;;;;5012324;28;20459;-75
2022/03/22 01:21:51;;;;;;;29.50;17.33;;;5.80;51.40;;;;;;5012285;28;20451;-73
2022/03/22 01:24:20;;;;;;;26.20;18.00;;;6.00;50.60;;;;;;5012295;28;20483;-75
2022/03/22 01:26:47;;;;;;;28.23;17.43;;;6.10;50.80;;;;;;5012377;28;20454;-73
2022/03/22 01:29:14;;;;;;;24.03;16.53;;;6.00;49.80;;;;;;5011929;28;20500;-75
2022/03/22 01:31:41;;;;;;;23.77;17.50;;;6.00;49.80;;;;;;5011875;28;20562;-77
2022/03/22 01:34:08;;;;;;;27.10;17.53;;;6.00;50.10;;;;;;5011861;28;20483;-71
2022/03/22 01:36:35;;;;;;;25.00;17.47;;;6.00;50.00;;;;;;5011990;28;20566;-71
2022/03/22 01:39:03;;;;;;;26.93;17.13;;;6.20;50.30;;;;;;5011869;28;20501;-72
2022/03/22 01:41:31;;;;;;;28.27;19.20;;;6.10;50.50;;;;;;5011283;28;20510;-70
2022/03/22 01:43:59;;;;;;;24.30;18.83;;;6.10;51.00;;;;;;5011827;28;20802;-71
2022/03/22 01:46:27;;;;;;;32.67;21.43;;;6.20;51.30;;;;;;5011708;28;20462;-71
2022/03/22 01:48:55;;;;;;;30.80;20.13;;;6.20;51.60;;;;;;5011675;28;20504;-73
2022/03/22 01:51:22;;;;;;;29.37;20.53;;;6.10;51.80;;;;;;5011990;28;20510;-75
2022/03/22 01:53:50;;;;;;;29.30;19.00;;;5.90;52.30;;;;;;5011731;28;20459;-76
2022/03/22 01:56:17;;;;;;;29.27;19.37;;;5.90;52.40;;;;;;5011382;28;20530;-73
2022/03/22 01:58:47;;;;;;;26.90;19.90;;;6.10;52.10;;;;;;5011041;28;20472;-74
2022/03/22 02:06:46;;;;;;;33.70;20.73;;;6.00;52.20;;;;;;5011227;28;20455;-74
2022/03/22 02:09:14;;;;;;;27.53;19.13;;;6.10;52.10;;;;;;5011225;28;20494;-76
2022/03/22 02:11:41;;;;;;;27.03;19.30;;;6.00;52.70;;;;;;5011591;28;20535;-73
2022/03/22 02:14:09;;;;;;;24.90;18.33;;;5.70;53.30;;;;;;5011357;28;20483;-75
2022/03/22 02:16:36;;;;;;;29.00;20.60;;;5.70;53.60;;;;;;5011347;28;20456;-75
2022/03/22 02:19:08;;;;;;;28.80;20.10;;;5.90;53.10;;;;;;5011484;28;20471;-76
2022/03/22 02:21:38;;;;;;;26.23;18.03;;;5.90;52.50;;;;;;5011148;28;20460;-72
2022/03/22 02:24:07;;;;;;;27.40;19.00;;;5.90;52.50;;;;;;5011167;28;20562;-75
2022/03/22 02:26:34;;;;;;;25.70;18.57;;;6.00;52.60;;;;;;5011144;28;20467;-73
2022/03/22 02:29:01;;;;;;;28.07;19.67;;;6.10;52.70;;;;;;5010995;28;20988;-73
2022/03/22 02:31:31;;;;;;;32.03;22.97;;;6.00;53.20;;;;;;5010905;28;20458;-75
2022/03/22 02:33:59;;;;;;;41.73;25.83;;;6.10;53.20;;;;;;5010739;28;20451;-74
2022/03/22 02:36:27;;;;;;;34.30;25.60;;;6.00;53.80;;;;;;5010765;28;20451;-75
2022/03/22 02:38:54;;;;;;;34.17;24.27;;;6.10;53.80;;;;;;5010890;28;21014;-75
2022/03/22 02:41:24;;;;;;;41.13;28.67;;;5.90;54.10;;;;;;5010910;28;20459;-74
2022/03/22 02:43:52;;;;;;;57.30;37.60;;;5.80;54.70;;;;;;5010850;28;20447;-73
2022/03/22 02:46:19;;;;;;;59.40;39.70;;;5.80;55.80;;;;;;5010454;28;20460;-79
2022/03/22 02:48:47;;;;;;;65.60;41.00;;;5.80;55.30;;;;;;5010666;28;20518;-75
2022/03/22 02:51:14;;;;;;;57.07;40.37;;;5.70;55.40;;;;;;5010718;28;20459;-74
2022/03/22 02:53:41;;;;;;;64.60;42.13;;;5.60;55.70;;;;;;5010725;28;20460;-76
2022/03/22 02:56:10;;;;;;;74.47;42.20;;;5.60;56.00;;;;;;5010546;28;20821;-75
2022/03/22 02:58:39;;;;;;;65.83;41.93;;;5.50;56.40;;;;;;5010346;28;20518;-73
2022/03/22 03:01:06;;;;;;;59.37;40.93;;;5.50;56.50;;;;;;5010378;28;20578;-77
2022/03/22 03:03:33;;;;;;;59.83;39.07;;;5.40;56.80;;;;;;5010555;28;20537;-74
2022/03/22 03:06:01;;;;;;;70.43;44.17;;;5.00;57.60;;;;;;5010401;28;20456;-75
2022/03/22 03:08:28;;;;;;;68.10;41.10;;;4.80;58.20;;;;;;5010391;28;20546;-77
2022/03/22 03:10:55;;;;;;;62.87;42.30;;;4.90;58.20;;;;;;5010606;28;20885;-73
2022/03/22 03:13:23;;;;;;;62.23;39.90;;;4.80;58.40;;;;;;5009903;28;20832;-76
2022/03/22 03:15:52;;;;;;;63.27;40.90;;;4.80;58.90;;;;;;5010016;28;20930;-74
2022/03/22 03:18:19;;;;;;;64.40;41.60;;;4.80;59.00;;;;;;5010040;28;20471;-74
2022/03/22 03:20:46;;;;;;;67.27;40.73;;;4.60;59.60;;;;;;5010174;28;20483;-75
2022/03/22 03:23:13;;;;;;;69.43;42.87;;;4.60;59.80;;;;;;5010024;28;20827;-76
2022/03/22 03:25:41;;;;;;;66.03;40.87;;;4.40;60.00;;;;;;5010103;28;20467;-75
2022/03/22 03:28:09;;;;;;;62.97;39.27;;;4.40;60.40;;;;;;5009639;28;20503;-75
2022/03/22 03:30:36;;;;;;;55.77;38.80;;;4.40;59.90;;;;;;5009893;28;20466;-74
2022/03/22 03:33:05;;;;;;;55.70;36.17;;;4.30;59.80;;;;;;5010086;28;20455;-72
2022/03/22 03:35:32;;;;;;;56.17;37.53;;;4.30;60.40;;;;;;5010170;28;20928;-74
2022/03/22 03:37:59;;;;;;;62.40;38.63;;;4.40;60.60;;;;;;5010190;28;20456;-77
2022/03/22 03:41:53;;;;;;;53.27;34.07;;;4.40;60.60;;;;;;5010022;28;20463;-74
2022/03/22 03:43:12;;;;;;;52.43;35.07;;;4.20;61.90;;;;;;5009770;28;20560;-73
2022/03/22 03:48:26;;;;;;;65.67;34.30;;;4.20;60.00;;;;;;5010023;28;21008;-73
2022/03/22 03:50:53;;;;;;;52.77;33.80;;;3.80;61.50;;;;;;5009783;28;20460;-75
2022/03/22 03:53:20;;;;;;;57.97;35.53;;;3.90;62.00;;;;;;5009561;28;20463;-76
2022/03/22 03:55:47;;;;;;;55.47;34.40;;;3.80;61.90;;;;;;5009780;28;20478;-75
2022/03/22 03:58:14;;;;;;;55.67;35.83;;;3.70;63.20;;;;;;5009635;28;20456;-74
2022/03/22 04:00:41;;;;;;;51.23;33.90;;;3.70;63.90;;;;;;5009683;28;20487;-74
2022/03/22 04:03:09;;;;;;;51.00;34.03;;;3.80;63.60;;;;;;5009853;28;20795;-74
2022/03/22 04:05:37;;;;;;;57.27;35.27;;;4.00;63.50;;;;;;5009218;28;20851;-73
2022/03/22 04:08:05;;;;;;;55.23;33.23;;;3.80;64.40;;;;;;5009653;28;20849;-74
2022/03/22 04:10:34;;;;;;;50.07;31.77;;;3.90;64.10;;;;;;5009603;28;20518;-75
2022/03/22 04:13:02;;;;;;;49.07;33.53;;;4.00;63.90;;;;;;5009725;28;20483;-77
2022/03/22 04:15:30;;;;;;;49.90;34.43;;;3.90;65.50;;;;;;5009630;28;20479;-71
2022/03/22 04:17:59;;;;;;;51.07;31.67;;;4.00;65.90;;;;;;5009418;28;20470;-75
2022/03/22 04:20:26;;;;;;;53.73;32.20;;;4.10;64.70;;;;;;5009445;28;20574;-74
2022/03/22 04:22:55;;;;;;;49.40;32.20;;;4.10;64.40;;;;;;5009541;28;20470;-72
2022/03/22 04:25:22;;;;;;;51.10;34.87;;;4.20;64.30;;;;;;5010172;28;21055;-73
2022/03/22 04:33:18;;;;;;;54.00;32.57;;;4.10;65.60;;;;;;5013153;28;20490;-74
2022/03/22 04:35:45;;;;;;;46.17;32.83;;;4.10;66.00;;;;;;5013248;28;20467;-78
2022/03/22 04:38:14;;;;;;;56.23;32.67;;;4.00;66.60;;;;;;5012681;28;20506;-75
2022/03/22 04:40:41;;;;;;;48.20;33.20;;;3.80;68.60;;;;;;5013309;28;20454;-74
2022/03/22 04:43:08;;;;;;;59.50;35.40;;;3.80;69.70;;;;;;5012859;28;20827;-77
2022/03/22 04:45:36;;;;;;;49.70;32.77;;;3.90;68.90;;;;;;5012760;28;20487;-73
2022/03/22 04:48:03;;;;;;;49.07;33.50;;;4.00;68.00;;;;;;5012914;28;20510;-74
2022/03/22 04:50:30;;;;;;;47.20;32.80;;;4.00;68.70;;;;;;5013095;28;20452;-73
2022/03/22 04:58:27;;;;;;;48.30;32.97;;;4.20;68.30;;;;;;5012977;28;20435;-73
2022/03/22 05:00:55;;;;;;;46.10;31.87;;;4.20;68.70;;;;;;5012555;28;20506;-74
2022/03/22 05:03:22;;;;;;;48.10;32.93;;;4.00;69.80;;;;;;5012718;28;21000;-77
2022/03/22 05:08:33;;;;;;;46.00;31.50;;;4.10;69.50;;;;;;5012438;28;20990;-74
2022/03/22 05:11:02;;;;;;;48.70;33.10;;;4.50;66.60;;;;;;5012367;28;20563;-79
2022/03/22 05:13:29;;;;;;;44.87;33.20;;;4.50;67.30;;;;;;5012524;28;20938;-79
2022/03/22 05:15:56;;;;;;;56.70;34.80;;;4.40;68.30;;;;;;5012443;28;20471;-74
2022/03/22 05:18:23;;;;;;;57.13;34.10;;;4.50;67.50;;;;;;5012487;28;20459;-72
2022/03/22 05:20:50;;;;;;;45.67;31.70;;;4.50;66.60;;;;;;5012173;28;20856;-71
2022/03/22 05:23:17;;;;;;;44.33;31.07;;;4.40;68.00;;;;;;5010187;28;20474;-73
2022/03/22 05:25:44;;;;;;;55.17;32.70;;;4.60;67.30;;;;;;5029713;28;20545;-71
2022/03/22 05:28:13;;;;;;;49.47;33.27;;;4.80;67.30;;;;;;5031850;28;20526;-74
2022/03/22 05:30:40;;;;;;;48.60;32.47;;;4.80;66.40;;;;;;5031540;28;20853;-73
2022/03/22 05:33:07;;;;;;;57.50;33.73;;;4.90;67.20;;;;;;5031450;28;20446;-74
2022/03/22 05:35:34;;;;;;;50.13;34.67;;;5.10;67.20;;;;;;5031751;28;20467;-74
2022/03/22 05:38:02;;;;;;;47.10;31.90;;;5.20;66.50;;;;;;5030827;28;20475;-70
2022/03/22 05:40:30;;;;;;;46.40;31.60;;;5.20;66.50;;;;;;5031654;28;20534;-70
2022/03/22 05:42:57;;;;;;;56.50;31.80;;;5.30;66.30;;;;;;5031710;28;20459;-74
2022/03/22 05:45:26;;;;;;;51.57;30.30;;;5.50;66.50;;;;;;5031227;28;20795;-72
2022/03/22 05:47:54;;;;;;;44.17;31.87;;;5.60;65.40;;;;;;5031866;28;20538;-71
2022/03/22 05:50:21;;;;;;;46.20;31.83;;;5.70;64.60;;;;;;5031294;28;20495;-73
2022/03/22 05:52:49;;;;;;;50.90;33.20;;;5.90;64.70;;;;;;5031471;28;20450;-71
2022/03/22 05:55:28;;;;;;;52.43;32.57;;;6.10;63.90;;;;;;5031329;28;20584;-74
2022/03/22 05:57:55;;;;;;;44.43;32.50;;;6.10;63.40;;;;;;5031268;28;20810;-72
2022/03/22 06:00:23;;;;;;;47.10;30.50;;;6.10;63.00;;;;;;5030514;28;20450;-72
2022/03/22 06:02:51;;;;;;;50.10;31.40;;;6.10;63.10;;;;;;5031230;28;20447;-73
2022/03/22 06:05:18;;;;;;;43.87;28.40;;;6.40;63.10;;;;;;5031120;28;20475;-74
2022/03/22 06:07:45;;;;;;;41.63;28.20;;;6.50;62.00;;;;;;5031281;28;20789;-78
2022/03/22 06:10:13;;;;;;;42.40;27.60;;;6.60;61.60;;;;;;5030978;28;20513;-74
2022/03/22 06:12:42;;;;;;;34.53;22.73;;;6.80;59.80;;;;;;5031081;28;20497;-76
2022/03/22 06:15:16;;;;;;;28.27;21.63;;;6.80;57.10;;;;;;5030464;28;20983;-74
2022/03/22 06:17:46;;;;;;;28.47;17.20;;;6.60;55.40;;;;;;5030591;28;20446;-75
2022/03/22 06:20:18;;;;;;;31.30;16.53;;;6.80;55.10;;;;;;5030882;28;20544;-74
2022/03/22 06:22:46;;;;;;;30.63;15.73;;;6.90;53.30;;;;;;5030457;28;20963;-68
2022/03/22 06:25:15;;;;;;;24.57;15.40;;;7.10;51.90;;;;;;5030340;28;20506;-78
2022/03/22 06:27:43;;;;;;;21.60;15.20;;;7.30;51.20;;;;;;5030636;28;20514;-69
2022/03/22 06:30:12;;;;;;;20.97;15.97;;;7.40;49.90;;;;;;5030542;28;20486;-72
2022/03/22 06:32:44;;;;;;;20.10;13.33;;;7.50;48.80;;;;;;5030745;28;21038;-78
2022/03/22 06:35:11;;;;;;;19.67;13.57;;;7.70;49.20;;;;;;5030506;28;20478;-71
2022/03/22 06:37:40;;;;;;;18.57;13.20;;;7.90;48.20;;;;;;5029924;28;20969;-76
2022/03/22 06:40:10;;;;;;;22.10;14.40;;;8.10;47.20;;;;;;5030140;28;20450;-74
2022/03/22 06:42:38;;;;;;;18.10;12.30;;;8.10;46.10;;;;;;5030233;28;20458;-67
2022/03/22 06:45:07;;;;;;;18.47;11.70;;;8.10;45.80;;;;;;5030049;28;20498;-72
2022/03/22 06:47:35;;;;;;;25.30;12.80;;;8.20;45.30;;;;;;5030316;28;20784;-70
2022/03/22 06:50:02;;;;;;;16.87;11.50;;;8.30;44.60;;;;;;5029398;28;20494;-69
2022/03/22 06:52:29;;;;;;;14.23;10.13;;;8.40;44.00;;;;;;5029582;28;20450;-72
2022/03/22 06:54:58;;;;;;;14.57;9.87;;;8.40;43.50;;;;;;5029991;28;20533;-73
2022/03/22 06:57:28;;;;;;;18.40;10.77;;;8.50;43.00;;;;;;5029999;28;20454;-69
2022/03/22 06:59:56;;;;;;;18.23;10.77;;;8.70;43.40;;;;;;5029907;28;20491;-74
2022/03/22 07:02:23;;;;;;;16.33;11.30;;;8.60;42.20;;;;;;5029555;28;20482;-73
2022/03/22 07:04:50;;;;;;;17.20;11.40;;;8.40;43.10;;;;;;5029843;28;21003;-76
2022/03/22 07:07:17;;;;;;;16.80;11.93;;;8.50;43.30;;;;;;5029766;28;20459;-72
2022/03/22 07:09:45;;;;;;;15.67;11.17;;;8.50;42.60;;;;;;5029833;28;20491;-72
2022/03/22 07:12:14;;;;;;;17.90;12.00;;;8.60;42.60;;;;;;5029834;28;20455;-73
2022/03/22 07:14:41;;;;;;;17.00;12.10;;;8.80;42.40;;;;;;5029722;28;20582;-73
2022/03/22 07:17:10;;;;;;;14.37;10.57;;;8.80;42.40;;;;;;5029989;28;20474;-73
2022/03/22 07:19:38;;;;;;;17.27;11.00;;;8.80;42.90;;;;;;5029769;28;20861;-71
2022/03/22 07:22:06;;;;;;;14.07;10.10;;;8.90;42.50;;;;;;5029272;28;20947;-71
2022/03/22 07:24:34;;;;;;;16.70;10.30;;;9.00;41.80;;;;;;5028833;28;20479;-71
2022/03/22 07:27:01;;;;;;;19.93;11.93;;;9.20;42.30;;;;;;5028616;28;20464;-77
2022/03/22 07:29:30;;;;;;;14.67;9.80;;;9.40;42.30;;;;;;5028937;28;20489;-79
2022/03/22 07:31:58;;;;;;;25.23;11.90;;;9.50;41.50;;;;;;5029422;28;20451;-77
2022/03/22 07:34:25;;;;;;;17.13;11.40;;;9.60;41.70;;;;;;5029575;28;20885;-78
2022/03/22 07:36:53;;;;;;;15.67;10.93;;;9.70;41.40;;;;;;5029880;28;20819;-74
2022/03/22 07:39:21;;;;;;;16.60;11.67;;;9.80;41.90;;;;;;5029942;28;20509;-78
2022/03/22 07:41:49;;;;;;;20.40;11.50;;;10.00;40.90;;;;;;5029259;28;20558;-74
2022/03/22 07:44:17;;;;;;;13.97;9.80;;;10.20;40.80;;;;;;5036741;28;20471;-75
2022/03/22 07:46:47;;;;;;;18.47;10.40;;;10.10;40.60;;;;;;5034598;28;20481;-71
2022/03/22 07:54:40;;;;;;;16.17;12.10;;;10.10;42.30;;;;;;5029980;28;20458;-77
2022/03/22 07:57:08;;;;;;;16.60;10.83;;;10.20;42.60;;;;;;5029492;28;20459;-75
2022/03/22 07:59:35;;;;;;;17.47;12.00;;;10.40;43.40;;;;;;5029615;28;20447;-75
2022/03/22 08:02:04;;;;;;;17.50;11.40;;;10.40;42.80;;;;;;5033594;28;20486;-76
2022/03/22 08:04:31;;;;;;;18.73;11.20;;;10.40;43.40;;;;;;5033436;28;20832;-75
2022/03/22 08:06:59;;;;;;;15.53;11.57;;;10.50;43.20;;;;;;5033711;28;20446;-73
2022/03/22 08:09:26;;;;;;;19.10;12.50;;;10.60;43.10;;;;;;5033188;28;20563;-77
2022/03/22 08:11:53;;;;;;;15.13;11.80;;;10.70;42.40;;;;;;5033817;28;20450;-74
2022/03/22 08:14:21;;;;;;;15.43;11.40;;;10.50;43.10;;;;;;5033411;28;20889;-75
2022/03/22 08:16:48;;;;;;;20.33;13.00;;;10.40;43.90;;;;;;5033215;28;20451;-78
2022/03/22 08:19:18;;;;;;;15.00;11.90;;;10.60;44.20;;;;;;5034772;28;20459;-81
2022/03/22 08:21:48;;;;;;;18.27;11.53;;;10.70;44.10;;;;;;5033387;28;20489;-74
2022/03/22 08:24:15;;;;;;;14.57;10.47;;;10.70;44.00;;;;;;5033272;28;20458;-75
2022/03/22 08:26:43;;;;;;;20.30;10.80;;;10.70;44.10;;;;;;5033297;28;20454;-74
2022/03/22 08:29:10;;;;;;;17.30;12.00;;;10.70;44.00;;;;;;5033739;28;20759;-75
2022/03/22 08:31:37;;;;;;;17.20;12.27;;;10.80;43.70;;;;;;5033323;28;20469;-75
2022/03/22 08:34:04;;;;;;;20.53;12.00;;;10.90;43.80;;;;;;5033849;28;20450;-77
2022/03/22 08:36:34;;;;;;;16.03;12.33;;;11.00;44.00;;;;;;5033367;28;20450;-77
2022/03/22 08:39:01;;;;;;;16.90;11.77;;;11.00;44.50;;;;;;5032680;28;20550;-77
2022/03/22 08:41:29;;;;;;;17.83;13.00;;;11.10;44.30;;;;;;5032887;28;20443;-75
2022/03/22 08:43:56;;;;;;;21.23;12.57;;;11.00;44.20;;;;;;5032710;28;20455;-77
2022/03/22 08:46:24;;;;;;;16.90;12.40;;;11.20;44.60;;;;;;5032984;28;20458;-75
2022/03/22 08:48:52;;;;;;;21.03;13.27;;;11.10;44.30;;;;;;5032843;28;20970;-75
2022/03/22 08:51:20;;;;;;;18.00;11.70;;;11.00;44.10;;;;;;5032410;28;20849;-74
2022/03/22 08:53:49;;;;;;;20.23;12.30;;;11.20;44.70;;;;;;5032520;28;20458;-76
2022/03/22 08:56:16;;;;;;;18.07;11.80;;;11.40;45.60;;;;;;5032388;28;20475;-75
2022/03/22 08:58:44;;;;;;;16.10;11.90;;;11.10;46.00;;;;;;5032586;28;20549;-73
2022/03/22 09:01:11;;;;;;;17.23;12.00;;;11.20;46.20;;;;;;5031898;28;20991;-77
2022/03/22 09:03:38;;;;;;;20.30;11.93;;;11.30;47.60;;;;;;5032172;28;20450;-76
2022/03/22 09:06:12;;;;;;;14.87;11.20;;;11.40;48.50;;;;;;5032313;28;20841;-78
2022/03/22 09:12:02;;;;;;;19.13;12.10;;;11.40;49.50;;;;;;5030995;28;20871;-77
2022/03/22 09:14:29;;;;;;;21.20;12.60;;;11.40;50.20;;;;;;5032005;28;20474;-76
2022/03/22 09:16:56;;;;;;;14.97;10.47;;;11.40;50.20;;;;;;5032327;28;20446;-76
2022/03/22 09:19:23;;;;;;;15.67;10.60;;;11.40;50.50;;;;;;5032303;28;20520;-79
2022/03/22 09:21:50;;;;;;;16.23;10.27;;;11.40;50.80;;;;;;5031944;28;20458;-78
2022/03/22 09:24:17;;;;;;;20.30;11.43;;;11.50;51.00;;;;;;5031676;28;20475;-73
2022/03/22 09:26:44;;;;;;;15.67;11.70;;;11.20;51.50;;;;;;5032124;28;20552;-75
2022/03/22 09:29:13;;;;;;;16.10;11.57;;;11.40;51.90;;;;;;5032096;28;20455;-80
2022/03/22 09:31:40;;;;;;;16.97;11.77;;;11.50;51.80;;;;;;5031829;28;20486;-78
2022/03/22 09:34:13;;;;;;;16.77;10.70;;;11.50;51.90;;;;;;5031957;28;20463;-79
2022/03/22 09:36:40;;;;;;;15.37;11.33;;;11.40;52.10;;;;;;5032266;28;20450;-76
2022/03/22 09:39:07;;;;;;;19.73;11.80;;;11.40;52.20;;;;;;5032102;28;20466;-75
2022/03/22 09:41:37;;;;;;;17.43;11.67;;;11.30;53.00;;;;;;5031682;28;20446;-77
2022/03/22 09:44:04;;;;;;;16.53;12.53;;;11.20;53.10;;;;;;5031817;28;20461;-74
2022/03/22 09:46:33;;;;;;;14.23;9.73;;;11.30;53.20;;;;;;5031565;28;20451;-79
2022/03/22 09:49:00;;;;;;;14.87;10.17;;;11.40;53.10;;;;;;5031544;28;20490;-78
2022/03/22 09:51:47;;;;;;;15.77;10.43;;;11.40;53.40;;;;;;5031414;28;20536;-75
2022/03/22 09:54:17;;;;;;;17.20;10.40;;;11.50;53.80;;;;;;5026590;28;20461;-70
2022/03/22 09:56:45;;;;;;;18.53;9.80;;;11.50;53.70;;;;;;5016947;28;20452;-70
2022/03/22 09:59:13;;;;;;;13.10;9.40;;;11.70;53.70;;;;;;5011192;28;20463;-71
2022/03/22 10:01:42;;;;;;;16.27;9.80;;;11.90;53.20;;;;;;5010148;28;20487;-70
2022/03/22 10:04:13;;;;;;;12.70;10.00;;;12.10;53.40;;;;;;5011655;28;20868;-74
2022/03/22 10:06:46;;;;;;;15.23;10.63;;;12.20;53.40;;;;;;5011505;28;20471;-73
2022/03/22 10:09:13;;;;;;;13.40;10.10;;;12.30;53.50;;;;;;5011135;28;20987;-73
2022/03/22 10:11:42;;;;;;;13.80;8.37;;;12.30;53.30;;;;;;4993748;28;20484;-75
2022/03/22 10:14:11;;;;;;;14.03;9.60;;;12.40;53.60;;;;;;5011291;28;20463;-72
2022/03/22 10:16:51;;;;;;;14.27;8.90;;;12.40;53.10;;;;;;5010810;28;20509;-73
2022/03/22 10:19:19;;;;;;;13.20;9.60;;;12.60;53.10;;;;;;5011241;28;20506;-72
2022/03/22 10:21:47;;;;;;;14.77;10.00;;;12.60;52.80;;;;;;5011193;28;20447;-74
2022/03/22 10:24:15;;;;;;;11.80;7.67;;;12.60;52.90;;;;;;5011125;28;20456;-74
2022/03/22 10:26:44;;;;;;;12.53;8.50;;;12.70;52.80;;;;;;5011059;28;20487;-73
2022/03/22 10:29:13;;;;;;;12.90;8.07;;;12.70;52.80;;;;;;5010956;28;20537;-74
2022/03/22 10:31:40;;;;;;;13.60;8.20;;;12.60;53.10;;;;;;5011220;28;20794;-73
2022/03/22 10:34:10;;;;;;;17.23;9.97;;;12.50;53.00;;;;;;5010652;28;20456;-72
2022/03/22 10:36:38;;;;;;;12.27;9.00;;;12.80;53.50;;;;;;5011094;28;20458;-71
2022/03/22 10:39:08;;;;;;;17.83;8.77;;;13.10;52.80;;;;;;5010819;28;20506;-74
2022/03/22 10:41:40;;;;;;;13.17;8.63;;;13.40;52.50;;;;;;5010171;28;20452;-74
2022/03/22 10:44:09;;;;;;;13.83;9.37;;;13.70;52.10;;;;;;5010598;28;20468;-72
2022/03/22 10:46:38;;;;;;;15.63;9.03;;;14.00;52.50;;;;;;5010686;28;20452;-69
2022/03/22 10:49:09;;;;;;;13.03;7.10;;;14.30;51.70;;;;;;5010989;28;20456;-72
2022/03/22 10:51:44;;;;;;;11.53;8.10;;;14.60;51.50;;;;;;5010508;28;20499;-71
2022/03/22 10:54:12;;;;;;;11.30;7.50;;;14.90;50.90;;;;;;5010105;28;20540;-72
2022/03/22 10:56:46;;;;;;;13.93;8.27;;;15.20;50.50;;;;;;5010455;28;20448;-71
2022/03/22 10:59:14;;;;;;;13.80;7.90;;;15.30;49.80;;;;;;5010476;28;20543;-74
2022/03/22 11:01:42;;;;;;;12.10;7.80;;;15.50;49.70;;;;;;5009940;28;21015;-74
2022/03/22 11:04:15;;;;;;;15.63;9.17;;;15.90;49.70;;;;;;5010485;28;20626;-70
2022/03/22 11:06:42;;;;;;;12.00;8.30;;;16.20;47.80;;;;;;5010446;28;20518;-70
2022/03/22 11:09:10;;;;;;;9.90;7.80;;;16.40;47.20;;;;;;5010228;28;20939;-72
2022/03/22 11:11:37;;;;;;;10.73;7.70;;;16.60;47.10;;;;;;5010020;28;20579;-71
2022/03/22 11:14:05;;;;;;;12.40;7.70;;;16.90;46.80;;;;;;5010483;28;20479;-72
2022/03/22 11:16:34;;;;;;;12.90;7.97;;;17.10;45.70;;;;;;5010294;28;20530;-74
2022/03/22 11:19:03;;;;;;;12.00;8.20;;;17.00;45.30;;;;;;5008148;28;20455;-75
2022/03/22 11:21:32;;;;;;;11.70;7.67;;;17.10;45.30;;;;;;5025246;28;20470;-70
2022/03/22 11:24:07;;;;;;;9.37;7.33;;;17.20;44.80;;;;;;5029465;28;20471;-74
2022/03/22 11:26:41;;;;;;;12.83;7.70;;;17.40;44.70;;;;;;5029558;28;20460;-72
2022/03/22 11:29:10;;;;;;;9.70;6.63;;;17.60;44.20;;;;;;5029493;28;20483;-73
2022/03/22 11:31:38;;;;;;;10.00;7.23;;;17.70;44.10;;;;;;5029419;28;20596;-74
2022/03/22 11:34:09;;;;;;;9.53;7.90;;;17.70;44.30;;;;;;5029142;28;20450;-70
2022/03/22 11:36:45;;;;;;;10.40;7.47;;;18.10;43.20;;;;;;5025779;28;20450;-73
2022/03/22 11:39:18;;;;;;;9.50;7.20;;;18.20;43.10;;;;;;5047617;28;20457;-73
2022/03/22 11:44:36;;;;;;;10.20;6.67;;;18.50;41.10;;;;;;5049135;28;20473;-74
2022/03/22 11:47:07;;;;;;;11.67;7.00;;;18.60;40.90;;;;;;5040095;28;20451;-72
2022/03/22 11:49:49;;;;;;;9.93;7.30;;;18.50;40.60;;;;;;5028886;28;20462;-73
2022/03/22 11:52:18;;;;;;;12.63;8.70;;;18.40;40.60;;;;;;5029073;28;20522;-72
2022/03/22 11:54:57;;;;;;;11.30;7.90;;;18.50;40.60;;;;;;5028881;28;20474;-74
2022/03/22 11:57:25;;;;;;;11.13;8.10;;;18.80;39.70;;;;;;5028923;28;20462;-72
2022/03/22 11:59:53;;;;;;;11.83;7.80;;;18.90;39.60;;;;;;5029531;28;20455;-72
2022/03/22 12:02:22;;;;;;;9.80;7.77;;;19.00;38.20;;;;;;5029203;28;20475;-73
2022/03/22 12:04:52;;;;;;;11.63;8.53;;;19.00;38.10;;;;;;5029027;28;20474;-72
2022/03/22 12:07:27;;;;;;;11.20;7.97;;;19.30;38.30;;;;;;5028986;28;20542;-74
2022/03/22 12:09:55;;;;;;;9.57;7.17;;;19.40;37.60;;;;;;5017714;28;20543;-75
2022/03/22 12:12:23;;;;;;;11.20;7.47;;;19.50;36.50;;;;;;5009255;28;20494;-73
2022/03/22 12:14:50;;;;;;;13.67;7.77;;;19.20;36.20;;;;;;5009512;28;20478;-72
2022/03/22 12:17:18;;;;;;;19.67;9.10;;;18.90;36.90;;;;;;5009495;28;20517;-73
2022/03/22 12:19:45;;;;;;;10.43;8.20;;;18.90;36.90;;;;;;5008991;28;20460;-69
2022/03/22 12:22:13;;;;;;;13.57;8.53;;;19.00;36.70;;;;;;5009375;28;20950;-72
2022/03/22 12:24:44;;;;;;;9.03;6.53;;;19.30;36.50;;;;;;5009397;28;20475;-71
2022/03/22 12:27:11;;;;;;;9.90;7.37;;;19.10;37.00;;;;;;5008976;28;20462;-77
2022/03/22 12:29:40;;;;;;;10.57;7.90;;;19.20;37.20;;;;;;5009431;28;20463;-73
2022/03/22 12:32:13;;;;;;;11.53;8.63;;;19.40;37.00;;;;;;5008898;28;20888;-73
2022/03/22 12:34:41;;;;;;;13.57;10.40;;;19.50;36.40;;;;;;5008764;28;20479;-72
2022/03/22 12:37:08;;;;;;;12.10;8.17;;;19.20;36.40;;;;;;5009274;28;21343;-73
2022/03/22 12:39:37;;;;;;;13.23;7.90;;;18.90;36.70;;;;;;5008630;28;20458;-71
2022/03/22 12:42:07;;;;;;;10.13;7.73;;;18.60;36.30;;;;;;5009213;28;20502;-73
2022/03/22 12:44:34;;;;;;;15.87;9.33;;;18.20;36.60;;;;;;5012823;28;20567;-73
2022/03/22 12:47:02;;;;;;;12.50;7.57;;;18.10;36.90;;;;;;5029299;28;20461;-73
2022/03/22 12:49:30;;;;;;;15.10;8.03;;;17.90;36.80;;;;;;5032372;28;20455;-71
2022/03/22 12:51:57;;;;;;;11.30;7.80;;;17.70;37.50;;;;;;5032496;28;20491;-72
2022/03/22 12:54:31;;;;;;;12.43;7.60;;;17.80;37.50;;;;;;5032525;28;20491;-70
2022/03/22 12:57:00;;;;;;;11.67;8.13;;;18.10;37.30;;;;;;5031999;28;20457;-72
2022/03/22 12:59:30;;;;;;;11.80;7.70;;;18.10;36.20;;;;;;5032343;28;20465;-73
2022/03/22 13:01:58;;;;;;;10.27;7.10;;;17.80;36.20;;;;;;5032220;28;20483;-73
2022/03/22 13:04:29;;;;;;;12.50;7.67;;;17.60;36.90;;;;;;5031984;28;20462;-70
2022/03/22 13:06:57;;;;;;;9.10;7.30;;;17.40;36.70;;;;;;5031723;28;20490;-70
2022/03/22 13:12:12;;;;;;;14.50;7.40;;;17.20;36.70;;;;;;5032426;28;20485;-79
2022/03/22 13:17:27;;;;;;;16.27;7.00;;;16.90;36.90;;;;;;5031668;28;20631;-74
2022/03/22 13:19:54;;;;;;;10.70;8.00;;;16.60;36.80;;;;;;5021277;28;20463;-74
2022/03/22 13:22:21;;;;;;;12.70;8.40;;;16.50;37.10;;;;;;5012085;28;20464;-73